sensor_id;sensor_type;location;lat;lon;timestamp;P1;durP1;ratioP1;P2;durP2;ratioP2
72974;SDS011;61166;54.228;37.632;2023-09-19T00:00:01;431.38;;;159.82;;
72974;SDS011;61166;54.228;37.632;2023-09-19T00:02:27;468.63;;;173.32;;
72974;SDS011;61166;54.228;37.632;2023-09-19T00:04:54;445.10;;;162.93;;
72974;SDS011;61166;54.228;37.632;2023-09-19T00:07:20;420.30;;;153.60;;
72974;SDS011;61166;54.228;37.632;2023-09-19T00:09:47;408.50;;;150.43;;
72974;SDS011;61166;54.228;37.632;2023-09-19T00:12:13;447.55;;;163.57;;
72974;SDS011;61166;54.228;37.632;2023-09-19T00:14:39;457.52;;;173.13;;
72974;SDS011;61166;54.228;37.632;2023-09-19T00:17:06;449.00;;;167.40;;
72974;SDS011;61166;54.228;37.632;2023-09-19T00:19:33;430.05;;;155.50;;
72974;SDS011;61166;54.228;37.632;2023-09-19T00:22:00;490.65;;;183.68;;
72974;SDS011;61166;54.228;37.632;2023-09-19T00:24:27;491.17;;;185.73;;
72974;SDS011;61166;54.228;37.632;2023-09-19T00:26:53;477.23;;;182.32;;
72974;SDS011;61166;54.228;37.632;2023-09-19T00:29:19;446.03;;;163.27;;
72974;SDS011;61166;54.228;37.632;2023-09-19T00:31:46;461.50;;;171.60;;
72974;SDS011;61166;54.228;37.632;2023-09-19T00:34:12;498.15;;;192.35;;
72974;SDS011;61166;54.228;37.632;2023-09-19T00:36:39;539.92;;;213.48;;
72974;SDS011;61166;54.228;37.632;2023-09-19T00:39:06;519.05;;;202.98;;
72974;SDS011;61166;54.228;37.632;2023-09-19T00:41:32;459.67;;;170.70;;
72974;SDS011;61166;54.228;37.632;2023-09-19T00:43:58;449.33;;;168.23;;
72974;SDS011;61166;54.228;37.632;2023-09-19T00:46:25;455.00;;;171.23;;
72974;SDS011;61166;54.228;37.632;2023-09-19T00:48:51;487.58;;;187.40;;
72974;SDS011;61166;54.228;37.632;2023-09-19T00:51:18;475.83;;;180.82;;
72974;SDS011;61166;54.228;37.632;2023-09-19T00:53:46;453.10;;;167.87;;
72974;SDS011;61166;54.228;37.632;2023-09-19T00:56:13;463.35;;;176.25;;
72974;SDS011;61166;54.228;37.632;2023-09-19T00:58:39;465.27;;;173.90;;
72974;SDS011;61166;54.228;37.632;2023-09-19T01:01:06;428.02;;;159.60;;
72974;SDS011;61166;54.228;37.632;2023-09-19T01:03:33;455.17;;;168.10;;
72974;SDS011;61166;54.228;37.632;2023-09-19T01:06:00;420.47;;;153.23;;
72974;SDS011;61166;54.228;37.632;2023-09-19T01:08:26;466.98;;;165.43;;
72974;SDS011;61166;54.228;37.632;2023-09-19T01:10:55;443.17;;;161.50;;
72974;SDS011;61166;54.228;37.632;2023-09-19T01:13:34;450.73;;;167.10;;
72974;SDS011;61166;54.228;37.632;2023-09-19T01:31:28;427.70;;;158.80;;
72974;SDS011;61166;54.228;37.632;2023-09-19T01:36:21;494.55;;;191.00;;
72974;SDS011;61166;54.228;37.632;2023-09-19T01:38:48;471.23;;;176.07;;
72974;SDS011;61166;54.228;37.632;2023-09-19T01:41:14;462.88;;;170.20;;
72974;SDS011;61166;54.228;37.632;2023-09-19T01:43:42;454.83;;;166.37;;
72974;SDS011;61166;54.228;37.632;2023-09-19T01:46:13;428.02;;;157.38;;
72974;SDS011;61166;54.228;37.632;2023-09-19T01:51:32;472.13;;;167.90;;
72974;SDS011;61166;54.228;37.632;2023-09-19T01:54:03;458.23;;;171.48;;
72974;SDS011;61166;54.228;37.632;2023-09-19T01:59:07;481.17;;;180.93;;
72974;SDS011;61166;54.228;37.632;2023-09-19T02:01:33;477.05;;;179.80;;
72974;SDS011;61166;54.228;37.632;2023-09-19T02:04:00;511.15;;;195.95;;
72974;SDS011;61166;54.228;37.632;2023-09-19T02:06:27;445.60;;;165.50;;
72974;SDS011;61166;54.228;37.632;2023-09-19T02:08:54;463.07;;;173.23;;
72974;SDS011;61166;54.228;37.632;2023-09-19T02:11:20;479.35;;;180.90;;
72974;SDS011;61166;54.228;37.632;2023-09-19T02:13:47;452.10;;;165.45;;
72974;SDS011;61166;54.228;37.632;2023-09-19T02:16:16;528.50;;;202.07;;
72974;SDS011;61166;54.228;37.632;2023-09-19T02:18:42;495.67;;;188.85;;
72974;SDS011;61166;54.228;37.632;2023-09-19T02:21:09;456.27;;;168.27;;
72974;SDS011;61166;54.228;37.632;2023-09-19T02:23:35;458.88;;;168.40;;
72974;SDS011;61166;54.228;37.632;2023-09-19T02:26:02;487.08;;;182.73;;
72974;SDS011;61166;54.228;37.632;2023-09-19T02:28:28;425.13;;;155.20;;
72974;SDS011;61166;54.228;37.632;2023-09-19T02:30:55;475.45;;;179.32;;
72974;SDS011;61166;54.228;37.632;2023-09-19T02:33:21;479.03;;;180.93;;
72974;SDS011;61166;54.228;37.632;2023-09-19T02:35:48;485.92;;;184.98;;
72974;SDS011;61166;54.228;37.632;2023-09-19T02:38:14;436.42;;;157.70;;
72974;SDS011;61166;54.228;37.632;2023-09-19T02:40:41;444.75;;;165.45;;
72974;SDS011;61166;54.228;37.632;2023-09-19T02:43:07;462.92;;;172.68;;
72974;SDS011;61166;54.228;37.632;2023-09-19T02:45:34;472.33;;;178.50;;
72974;SDS011;61166;54.228;37.632;2023-09-19T02:48:00;469.25;;;174.75;;
72974;SDS011;61166;54.228;37.632;2023-09-19T02:50:27;480.70;;;179.32;;
72974;SDS011;61166;54.228;37.632;2023-09-19T02:52:53;473.25;;;175.90;;
72974;SDS011;61166;54.228;37.632;2023-09-19T02:55:19;475.02;;;179.23;;
72974;SDS011;61166;54.228;37.632;2023-09-19T02:57:50;484.70;;;184.33;;
72974;SDS011;61166;54.228;37.632;2023-09-19T03:00:17;445.42;;;164.68;;
72974;SDS011;61166;54.228;37.632;2023-09-19T03:02:43;454.73;;;164.25;;
72974;SDS011;61166;54.228;37.632;2023-09-19T03:05:10;491.02;;;184.80;;
72974;SDS011;61166;54.228;37.632;2023-09-19T03:07:37;489.30;;;185.05;;
72974;SDS011;61166;54.228;37.632;2023-09-19T03:10:04;481.97;;;181.80;;
72974;SDS011;61166;54.228;37.632;2023-09-19T03:12:31;482.90;;;181.75;;
72974;SDS011;61166;54.228;37.632;2023-09-19T03:14:57;453.30;;;169.38;;
72974;SDS011;61166;54.228;37.632;2023-09-19T03:17:23;448.63;;;167.07;;
72974;SDS011;61166;54.228;37.632;2023-09-19T03:19:50;490.77;;;186.52;;
72974;SDS011;61166;54.228;37.632;2023-09-19T03:22:16;502.90;;;185.80;;
72974;SDS011;61166;54.228;37.632;2023-09-19T03:24:43;530.83;;;200.82;;
72974;SDS011;61166;54.228;37.632;2023-09-19T03:27:09;504.52;;;189.82;;
72974;SDS011;61166;54.228;37.632;2023-09-19T03:29:36;479.50;;;181.25;;
72974;SDS011;61166;54.228;37.632;2023-09-19T03:32:03;465.13;;;177.13;;
72974;SDS011;61166;54.228;37.632;2023-09-19T03:34:29;427.97;;;161.43;;
72974;SDS011;61166;54.228;37.632;2023-09-19T03:36:56;454.55;;;168.57;;
72974;SDS011;61166;54.228;37.632;2023-09-19T03:39:22;457.33;;;171.35;;
72974;SDS011;61166;54.228;37.632;2023-09-19T03:41:49;421.70;;;158.15;;
72974;SDS011;61166;54.228;37.632;2023-09-19T03:44:15;446.58;;;165.65;;
72974;SDS011;61166;54.228;37.632;2023-09-19T03:46:41;438.93;;;163.90;;
72974;SDS011;61166;54.228;37.632;2023-09-19T03:49:08;446.65;;;163.43;;
72974;SDS011;61166;54.228;37.632;2023-09-19T03:51:35;442.00;;;164.45;;
72974;SDS011;61166;54.228;37.632;2023-09-19T03:54:01;446.55;;;162.68;;
72974;SDS011;61166;54.228;37.632;2023-09-19T03:56:27;449.00;;;170.57;;
72974;SDS011;61166;54.228;37.632;2023-09-19T03:58:54;438.27;;;163.77;;
72974;SDS011;61166;54.228;37.632;2023-09-19T04:01:20;454.02;;;167.90;;
72974;SDS011;61166;54.228;37.632;2023-09-19T04:03:48;453.77;;;170.43;;
72974;SDS011;61166;54.228;37.632;2023-09-19T04:06:15;467.15;;;175.88;;
72974;SDS011;61166;54.228;37.632;2023-09-19T04:08:41;434.30;;;162.13;;
72974;SDS011;61166;54.228;37.632;2023-09-19T04:11:08;453.93;;;168.37;;
72974;SDS011;61166;54.228;37.632;2023-09-19T04:13:34;465.23;;;175.43;;
72974;SDS011;61166;54.228;37.632;2023-09-19T04:16:01;462.80;;;173.05;;
72974;SDS011;61166;54.228;37.632;2023-09-19T04:18:28;464.88;;;172.48;;
72974;SDS011;61166;54.228;37.632;2023-09-19T04:20:54;467.00;;;177.25;;
72974;SDS011;61166;54.228;37.632;2023-09-19T04:23:21;435.73;;;160.57;;
72974;SDS011;61166;54.228;37.632;2023-09-19T04:25:47;475.83;;;174.55;;
72974;SDS011;61166;54.228;37.632;2023-09-19T04:28:14;552.85;;;211.30;;
72974;SDS011;61166;54.228;37.632;2023-09-19T04:30:41;571.55;;;212.50;;
72974;SDS011;61166;54.228;37.632;2023-09-19T04:33:07;601.42;;;226.07;;
72974;SDS011;61166;54.228;37.632;2023-09-19T04:35:34;615.37;;;229.03;;
72974;SDS011;61166;54.228;37.632;2023-09-19T04:38:00;500.40;;;180.18;;
72974;SDS011;61166;54.228;37.632;2023-09-19T04:40:27;477.90;;;172.70;;
72974;SDS011;61166;54.228;37.632;2023-09-19T04:42:54;475.10;;;171.23;;
72974;SDS011;61166;54.228;37.632;2023-09-19T04:45:20;472.48;;;168.40;;
72974;SDS011;61166;54.228;37.632;2023-09-19T04:47:47;470.93;;;166.93;;
72974;SDS011;61166;54.228;37.632;2023-09-19T04:50:13;464.67;;;164.93;;
72974;SDS011;61166;54.228;37.632;2023-09-19T04:52:43;473.83;;;171.07;;
72974;SDS011;61166;54.228;37.632;2023-09-19T04:55:13;485.13;;;175.27;;
72974;SDS011;61166;54.228;37.632;2023-09-19T04:57:39;474.27;;;168.75;;
72974;SDS011;61166;54.228;37.632;2023-09-19T05:00:06;489.90;;;173.90;;
72974;SDS011;61166;54.228;37.632;2023-09-19T05:02:32;473.17;;;169.57;;
72974;SDS011;61166;54.228;37.632;2023-09-19T05:04:59;474.65;;;167.55;;
72974;SDS011;61166;54.228;37.632;2023-09-19T05:07:25;480.73;;;170.50;;
72974;SDS011;61166;54.228;37.632;2023-09-19T05:09:52;497.83;;;178.48;;
72974;SDS011;61166;54.228;37.632;2023-09-19T05:12:18;540.07;;;194.97;;
72974;SDS011;61166;54.228;37.632;2023-09-19T05:14:45;540.38;;;197.25;;
72974;SDS011;61166;54.228;37.632;2023-09-19T05:17:11;495.73;;;179.65;;
72974;SDS011;61166;54.228;37.632;2023-09-19T05:19:39;484.90;;;173.10;;
72974;SDS011;61166;54.228;37.632;2023-09-19T05:22:05;494.63;;;174.35;;
72974;SDS011;61166;54.228;37.632;2023-09-19T05:24:32;530.47;;;191.37;;
72974;SDS011;61166;54.228;37.632;2023-09-19T05:26:58;494.40;;;173.05;;
72974;SDS011;61166;54.228;37.632;2023-09-19T05:29:24;461.83;;;162.45;;
72974;SDS011;61166;54.228;37.632;2023-09-19T05:31:51;539.30;;;196.95;;
72974;SDS011;61166;54.228;37.632;2023-09-19T05:34:17;503.30;;;178.10;;
72974;SDS011;61166;54.228;37.632;2023-09-19T05:36:44;450.50;;;161.57;;
72974;SDS011;61166;54.228;37.632;2023-09-19T05:39:10;446.48;;;160.27;;
72974;SDS011;61166;54.228;37.632;2023-09-19T05:41:37;460.15;;;168.80;;
72974;SDS011;61166;54.228;37.632;2023-09-19T05:44:03;474.70;;;172.32;;
72974;SDS011;61166;54.228;37.632;2023-09-19T05:46:30;459.80;;;164.80;;
72974;SDS011;61166;54.228;37.632;2023-09-19T05:48:56;448.50;;;160.87;;
72974;SDS011;61166;54.228;37.632;2023-09-19T05:51:23;440.52;;;156.20;;
72974;SDS011;61166;54.228;37.632;2023-09-19T05:53:49;484.30;;;174.43;;
72974;SDS011;61166;54.228;37.632;2023-09-19T05:56:16;515.95;;;184.10;;
72974;SDS011;61166;54.228;37.632;2023-09-19T05:58:42;468.60;;;162.00;;
72974;SDS011;61166;54.228;37.632;2023-09-19T06:01:09;533.17;;;193.93;;
72974;SDS011;61166;54.228;37.632;2023-09-19T06:03:35;528.60;;;189.82;;
72974;SDS011;61166;54.228;37.632;2023-09-19T06:06:02;498.98;;;176.82;;
72974;SDS011;61166;54.228;37.632;2023-09-19T06:08:28;499.08;;;178.18;;
72974;SDS011;61166;54.228;37.632;2023-09-19T06:10:55;512.17;;;183.50;;
72974;SDS011;61166;54.228;37.632;2023-09-19T06:13:21;461.23;;;163.87;;
72974;SDS011;61166;54.228;37.632;2023-09-19T06:15:47;436.38;;;155.27;;
72974;SDS011;61166;54.228;37.632;2023-09-19T06:18:14;421.58;;;152.27;;
72974;SDS011;61166;54.228;37.632;2023-09-19T06:20:40;424.98;;;153.07;;
72974;SDS011;61166;54.228;37.632;2023-09-19T06:23:07;452.42;;;158.95;;
72974;SDS011;61166;54.228;37.632;2023-09-19T06:25:33;503.00;;;180.77;;
72974;SDS011;61166;54.228;37.632;2023-09-19T06:28:00;478.52;;;166.80;;
72974;SDS011;61166;54.228;37.632;2023-09-19T06:30:26;500.70;;;177.98;;
72974;SDS011;61166;54.228;37.632;2023-09-19T06:32:56;453.52;;;163.60;;
72974;SDS011;61166;54.228;37.632;2023-09-19T06:35:23;441.73;;;157.13;;
72974;SDS011;61166;54.228;37.632;2023-09-19T06:37:50;426.40;;;152.90;;
72974;SDS011;61166;54.228;37.632;2023-09-19T06:40:16;437.58;;;157.23;;
72974;SDS011;61166;54.228;37.632;2023-09-19T06:42:43;396.58;;;147.07;;
72974;SDS011;61166;54.228;37.632;2023-09-19T06:45:10;462.10;;;164.73;;
72974;SDS011;61166;54.228;37.632;2023-09-19T06:47:36;456.77;;;162.85;;
72974;SDS011;61166;54.228;37.632;2023-09-19T06:50:03;459.33;;;164.93;;
72974;SDS011;61166;54.228;37.632;2023-09-19T06:52:30;472.42;;;168.38;;
72974;SDS011;61166;54.228;37.632;2023-09-19T06:54:56;460.35;;;164.90;;
72974;SDS011;61166;54.228;37.632;2023-09-19T06:57:22;478.05;;;170.60;;
72974;SDS011;61166;54.228;37.632;2023-09-19T06:59:49;444.75;;;158.77;;
72974;SDS011;61166;54.228;37.632;2023-09-19T07:02:15;470.17;;;166.17;;
72974;SDS011;61166;54.228;37.632;2023-09-19T07:04:42;488.75;;;174.75;;
72974;SDS011;61166;54.228;37.632;2023-09-19T07:07:08;440.85;;;158.82;;
72974;SDS011;61166;54.228;37.632;2023-09-19T07:09:35;487.67;;;175.90;;
72974;SDS011;61166;54.228;37.632;2023-09-19T07:12:01;476.48;;;170.85;;
72974;SDS011;61166;54.228;37.632;2023-09-19T07:14:31;474.43;;;169.57;;
72974;SDS011;61166;54.228;37.632;2023-09-19T07:16:58;466.92;;;169.07;;
72974;SDS011;61166;54.228;37.632;2023-09-19T07:19:24;407.65;;;151.68;;
72974;SDS011;61166;54.228;37.632;2023-09-19T07:21:51;379.08;;;146.50;;
72974;SDS011;61166;54.228;37.632;2023-09-19T07:24:17;407.05;;;155.27;;
72974;SDS011;61166;54.228;37.632;2023-09-19T07:26:45;379.00;;;149.30;;
72974;SDS011;61166;54.228;37.632;2023-09-19T07:29:11;353.67;;;142.02;;
72974;SDS011;61166;54.228;37.632;2023-09-19T07:31:38;373.17;;;152.23;;
72974;SDS011;61166;54.228;37.632;2023-09-19T07:34:04;349.20;;;144.02;;
72974;SDS011;61166;54.228;37.632;2023-09-19T07:36:31;190.23;;;98.53;;
72974;SDS011;61166;54.228;37.632;2023-09-19T07:38:57;193.30;;;99.17;;
72974;SDS011;61166;54.228;37.632;2023-09-19T07:41:43;76.00;;;44.75;;
72974;SDS011;61166;54.228;37.632;2023-09-19T07:44:10;175.80;;;89.72;;
72974;SDS011;61166;54.228;37.632;2023-09-19T07:46:36;74.47;;;45.58;;
72974;SDS011;61166;54.228;37.632;2023-09-19T07:49:03;138.90;;;72.25;;
72974;SDS011;61166;54.228;37.632;2023-09-19T07:51:29;75.63;;;43.27;;
72974;SDS011;61166;54.228;37.632;2023-09-19T07:53:56;128.15;;;71.97;;
72974;SDS011;61166;54.228;37.632;2023-09-19T07:56:22;158.70;;;82.72;;
72974;SDS011;61166;54.228;37.632;2023-09-19T07:58:49;244.10;;;118.25;;
72974;SDS011;61166;54.228;37.632;2023-09-19T08:01:16;166.18;;;84.13;;
72974;SDS011;61166;54.228;37.632;2023-09-19T08:03:42;73.77;;;43.67;;
72974;SDS011;61166;54.228;37.632;2023-09-19T08:06:09;61.03;;;35.60;;
72974;SDS011;61166;54.228;37.632;2023-09-19T08:08:36;74.70;;;49.75;;
72974;SDS011;61166;54.228;37.632;2023-09-19T08:11:04;70.70;;;45.28;;
72974;SDS011;61166;54.228;37.632;2023-09-19T08:13:30;62.90;;;40.78;;
72974;SDS011;61166;54.228;37.632;2023-09-19T08:15:57;62.83;;;42.33;;
72974;SDS011;61166;54.228;37.632;2023-09-19T08:18:23;43.58;;;28.10;;
72974;SDS011;61166;54.228;37.632;2023-09-19T08:20:50;45.28;;;29.05;;
72974;SDS011;61166;54.228;37.632;2023-09-19T08:23:17;34.20;;;21.58;;
72974;SDS011;61166;54.228;37.632;2023-09-19T08:25:43;37.35;;;21.55;;
72974;SDS011;61166;54.228;37.632;2023-09-19T08:28:10;35.27;;;21.70;;
72974;SDS011;61166;54.228;37.632;2023-09-19T08:30:36;28.85;;;19.67;;
72974;SDS011;61166;54.228;37.632;2023-09-19T08:33:03;38.25;;;24.58;;
72974;SDS011;61166;54.228;37.632;2023-09-19T08:35:30;41.60;;;21.10;;
72974;SDS011;61166;54.228;37.632;2023-09-19T08:37:57;40.90;;;24.70;;
72974;SDS011;61166;54.228;37.632;2023-09-19T08:40:23;30.27;;;20.63;;
72974;SDS011;61166;54.228;37.632;2023-09-19T08:42:54;35.95;;;21.40;;
72974;SDS011;61166;54.228;37.632;2023-09-19T08:45:21;36.13;;;22.27;;
72974;SDS011;61166;54.228;37.632;2023-09-19T08:50:26;30.52;;;19.40;;
72974;SDS011;61166;54.228;37.632;2023-09-19T08:52:54;36.07;;;19.57;;
72974;SDS011;61166;54.228;37.632;2023-09-19T08:55:23;39.03;;;21.80;;
72974;SDS011;61166;54.228;37.632;2023-09-19T08:57:50;32.95;;;23.27;;
72974;SDS011;61166;54.228;37.632;2023-09-19T09:00:17;69.47;;;37.40;;
72974;SDS011;61166;54.228;37.632;2023-09-19T09:02:43;64.90;;;45.10;;
72974;SDS011;61166;54.228;37.632;2023-09-19T09:05:10;64.73;;;36.23;;
72974;SDS011;61166;54.228;37.632;2023-09-19T09:07:37;151.35;;;79.18;;
72974;SDS011;61166;54.228;37.632;2023-09-19T09:10:03;122.63;;;68.55;;
72974;SDS011;61166;54.228;37.632;2023-09-19T09:12:30;86.75;;;50.13;;
72974;SDS011;61166;54.228;37.632;2023-09-19T09:14:57;63.47;;;37.05;;
72974;SDS011;61166;54.228;37.632;2023-09-19T09:17:26;93.63;;;47.87;;
72974;SDS011;61166;54.228;37.632;2023-09-19T09:19:53;80.75;;;51.10;;
72974;SDS011;61166;54.228;37.632;2023-09-19T09:22:19;112.35;;;63.55;;
72974;SDS011;61166;54.228;37.632;2023-09-19T09:24:55;118.18;;;66.38;;
72974;SDS011;61166;54.228;37.632;2023-09-19T09:27:22;94.88;;;50.83;;
72974;SDS011;61166;54.228;37.632;2023-09-19T09:29:50;63.50;;;38.80;;
72974;SDS011;61166;54.228;37.632;2023-09-19T09:32:20;95.97;;;59.33;;
72974;SDS011;61166;54.228;37.632;2023-09-19T09:34:53;47.35;;;26.67;;
72974;SDS011;61166;54.228;37.632;2023-09-19T09:37:22;84.45;;;49.47;;
72974;SDS011;61166;54.228;37.632;2023-09-19T09:39:49;287.13;;;123.10;;
72974;SDS011;61166;54.228;37.632;2023-09-19T09:42:28;243.00;;;113.10;;
72974;SDS011;61166;54.228;37.632;2023-09-19T09:45:12;189.43;;;97.40;;
72974;SDS011;61166;54.228;37.632;2023-09-19T09:47:45;75.70;;;44.33;;
72974;SDS011;61166;54.228;37.632;2023-09-19T09:50:12;52.47;;;27.73;;
72974;SDS011;61166;54.228;37.632;2023-09-19T09:52:44;62.05;;;36.63;;
72974;SDS011;61166;54.228;37.632;2023-09-19T09:55:11;69.93;;;47.90;;
72974;SDS011;61166;54.228;37.632;2023-09-19T09:57:38;80.10;;;46.60;;
72974;SDS011;61166;54.228;37.632;2023-09-19T10:00:04;101.40;;;61.92;;
72974;SDS011;61166;54.228;37.632;2023-09-19T10:02:35;166.80;;;90.88;;
72974;SDS011;61166;54.228;37.632;2023-09-19T10:05:35;188.77;;;94.95;;
72974;SDS011;61166;54.228;37.632;2023-09-19T10:07:55;149.90;;;79.83;;
72974;SDS011;61166;54.228;37.632;2023-09-19T10:10:31;137.40;;;78.75;;
72974;SDS011;61166;54.228;37.632;2023-09-19T10:12:58;121.00;;;73.20;;
72974;SDS011;61166;54.228;37.632;2023-09-19T10:15:25;264.63;;;114.13;;
72974;SDS011;61166;54.228;37.632;2023-09-19T10:17:52;214.18;;;100.32;;
72974;SDS011;61166;54.228;37.632;2023-09-19T10:20:20;151.53;;;80.50;;
72974;SDS011;61166;54.228;37.632;2023-09-19T10:22:46;80.85;;;53.53;;
72974;SDS011;61166;54.228;37.632;2023-09-19T10:25:14;190.68;;;94.10;;
72974;SDS011;61166;54.228;37.632;2023-09-19T10:27:40;186.57;;;90.57;;
72974;SDS011;61166;54.228;37.632;2023-09-19T10:30:07;285.52;;;119.88;;
72974;SDS011;61166;54.228;37.632;2023-09-19T10:32:34;213.63;;;101.50;;
72974;SDS011;61166;54.228;37.632;2023-09-19T10:35:02;236.35;;;107.68;;
72974;SDS011;61166;54.228;37.632;2023-09-19T10:37:28;149.98;;;83.70;;
72974;SDS011;61166;54.228;37.632;2023-09-19T10:39:55;184.10;;;93.72;;
72974;SDS011;61166;54.228;37.632;2023-09-19T10:42:22;238.63;;;108.18;;
72974;SDS011;61166;54.228;37.632;2023-09-19T10:44:52;168.93;;;83.33;;
72974;SDS011;61166;54.228;37.632;2023-09-19T10:47:18;143.25;;;78.47;;
72974;SDS011;61166;54.228;37.632;2023-09-19T10:49:45;138.80;;;78.53;;
72974;SDS011;61166;54.228;37.632;2023-09-19T10:52:12;230.65;;;104.30;;
72974;SDS011;61166;54.228;37.632;2023-09-19T10:54:41;365.63;;;138.50;;
72974;SDS011;61166;54.228;37.632;2023-09-19T10:57:12;192.97;;;95.57;;
72974;SDS011;61166;54.228;37.632;2023-09-19T10:59:38;214.30;;;101.85;;
72974;SDS011;61166;54.228;37.632;2023-09-19T11:02:24;545.75;;;193.30;;
72974;SDS011;61166;54.228;37.632;2023-09-19T11:04:51;598.25;;;211.93;;
72974;SDS011;61166;54.228;37.632;2023-09-19T11:07:18;521.88;;;185.93;;
72974;SDS011;61166;54.228;37.632;2023-09-19T11:09:54;465.30;;;164.93;;
72974;SDS011;61166;54.228;37.632;2023-09-19T11:14:59;339.45;;;131.18;;
72974;SDS011;61166;54.228;37.632;2023-09-19T11:17:33;408.23;;;146.02;;
72974;SDS011;61166;54.228;37.632;2023-09-19T11:22:57;374.03;;;139.10;;
72974;SDS011;61166;54.228;37.632;2023-09-19T11:30:39;405.80;;;149.73;;
72974;SDS011;61166;54.228;37.632;2023-09-19T11:33:16;263.48;;;109.88;;
72974;SDS011;61166;54.228;37.632;2023-09-19T11:36:17;300.97;;;122.50;;
72974;SDS011;61166;54.228;37.632;2023-09-19T11:43:47;444.40;;;159.10;;
72974;SDS011;61166;54.228;37.632;2023-09-19T11:46:14;509.83;;;178.73;;
72974;SDS011;61166;54.228;37.632;2023-09-19T11:48:41;555.90;;;197.93;;
72974;SDS011;61166;54.228;37.632;2023-09-19T11:51:11;533.03;;;184.60;;
72974;SDS011;61166;54.228;37.632;2023-09-19T11:53:38;442.00;;;157.63;;
72974;SDS011;61166;54.228;37.632;2023-09-19T11:56:08;495.63;;;175.60;;
72974;SDS011;61166;54.228;37.632;2023-09-19T11:58:34;425.67;;;155.10;;
72974;SDS011;61166;54.228;37.632;2023-09-19T12:01:01;477.67;;;170.20;;
72974;SDS011;61166;54.228;37.632;2023-09-19T12:03:29;507.15;;;183.68;;
72974;SDS011;61166;54.228;37.632;2023-09-19T12:05:56;443.15;;;159.80;;
72974;SDS011;61166;54.228;37.632;2023-09-19T12:08:22;465.58;;;170.60;;
72974;SDS011;61166;54.228;37.632;2023-09-19T12:10:51;264.08;;;112.95;;
72974;SDS011;61166;54.228;37.632;2023-09-19T12:13:20;144.47;;;81.27;;
72974;SDS011;61166;54.228;37.632;2023-09-19T12:15:48;143.32;;;80.95;;
72974;SDS011;61166;54.228;37.632;2023-09-19T12:18:29;144.90;;;82.28;;
72974;SDS011;61166;54.228;37.632;2023-09-19T12:20:57;165.57;;;87.80;;
72974;SDS011;61166;54.228;37.632;2023-09-19T12:23:23;150.05;;;83.82;;
72974;SDS011;61166;54.228;37.632;2023-09-19T12:25:50;161.23;;;85.73;;
72974;SDS011;61166;54.228;37.632;2023-09-19T12:28:16;187.57;;;90.93;;
72974;SDS011;61166;54.228;37.632;2023-09-19T12:30:43;123.40;;;75.45;;
72974;SDS011;61166;54.228;37.632;2023-09-19T12:33:17;99.10;;;65.70;;
72974;SDS011;61166;54.228;37.632;2023-09-19T12:35:44;93.43;;;63.33;;
72974;SDS011;61166;54.228;37.632;2023-09-19T12:38:10;75.53;;;54.73;;
72974;SDS011;61166;54.228;37.632;2023-09-19T12:40:36;64.20;;;50.67;;
72974;SDS011;61166;54.228;37.632;2023-09-19T12:43:04;67.35;;;52.95;;
72974;SDS011;61166;54.228;37.632;2023-09-19T12:45:31;70.25;;;53.28;;
72974;SDS011;61166;54.228;37.632;2023-09-19T12:48:32;53.92;;;46.40;;
72974;SDS011;61166;54.228;37.632;2023-09-19T12:51:03;75.80;;;55.43;;
72974;SDS011;61166;54.228;37.632;2023-09-19T12:53:30;69.57;;;54.13;;
72974;SDS011;61166;54.228;37.632;2023-09-19T12:56:00;76.15;;;57.15;;
72974;SDS011;61166;54.228;37.632;2023-09-19T12:58:26;86.22;;;60.30;;
72974;SDS011;61166;54.228;37.632;2023-09-19T13:00:53;82.25;;;57.38;;
72974;SDS011;61166;54.228;37.632;2023-09-19T13:05:49;92.43;;;60.75;;
72974;SDS011;61166;54.228;37.632;2023-09-19T13:08:32;89.20;;;61.92;;
72974;SDS011;61166;54.228;37.632;2023-09-19T13:11:02;108.57;;;68.68;;
72974;SDS011;61166;54.228;37.632;2023-09-19T13:13:29;95.65;;;63.03;;
72974;SDS011;61166;54.228;37.632;2023-09-19T13:15:55;115.67;;;69.83;;
72974;SDS011;61166;54.228;37.632;2023-09-19T13:18:22;102.28;;;64.22;;
72974;SDS011;61166;54.228;37.632;2023-09-19T13:21:05;96.20;;;64.40;;
72974;SDS011;61166;54.228;37.632;2023-09-19T13:23:31;120.72;;;72.13;;
72974;SDS011;61166;54.228;37.632;2023-09-19T13:25:58;90.18;;;60.90;;
72974;SDS011;61166;54.228;37.632;2023-09-19T13:28:24;149.73;;;80.00;;
72974;SDS011;61166;54.228;37.632;2023-09-19T13:30:51;267.33;;;114.32;;
72974;SDS011;61166;54.228;37.632;2023-09-19T13:33:17;130.70;;;74.68;;
72974;SDS011;61166;54.228;37.632;2023-09-19T13:35:44;221.10;;;100.03;;
72974;SDS011;61166;54.228;37.632;2023-09-19T13:38:10;260.27;;;110.93;;
72974;SDS011;61166;54.228;37.632;2023-09-19T13:40:38;312.20;;;125.50;;
72974;SDS011;61166;54.228;37.632;2023-09-19T13:43:06;178.25;;;90.43;;
72974;SDS011;61166;54.228;37.632;2023-09-19T13:45:32;188.55;;;92.00;;
72974;SDS011;61166;54.228;37.632;2023-09-19T13:47:59;249.70;;;108.55;;
72974;SDS011;61166;54.228;37.632;2023-09-19T13:50:25;307.77;;;122.82;;
72974;SDS011;61166;54.228;37.632;2023-09-19T13:52:53;210.80;;;98.17;;
72974;SDS011;61166;54.228;37.632;2023-09-19T13:55:19;244.57;;;108.40;;
72974;SDS011;61166;54.228;37.632;2023-09-19T13:57:47;97.30;;;64.03;;
72974;SDS011;61166;54.228;37.632;2023-09-19T14:00:13;186.90;;;90.95;;
72974;SDS011;61166;54.228;37.632;2023-09-19T14:02:39;186.15;;;92.90;;
72974;SDS011;61166;54.228;37.632;2023-09-19T14:05:06;283.53;;;115.83;;
72974;SDS011;61166;54.228;37.632;2023-09-19T14:07:33;313.70;;;123.68;;
72974;SDS011;61166;54.228;37.632;2023-09-19T14:09:59;286.75;;;118.30;;
72974;SDS011;61166;54.228;37.632;2023-09-19T14:12:26;85.80;;;59.03;;
72974;SDS011;61166;54.228;37.632;2023-09-19T14:14:52;82.75;;;57.75;;
72974;SDS011;61166;54.228;37.632;2023-09-19T14:17:19;100.77;;;63.30;;
72974;SDS011;61166;54.228;37.632;2023-09-19T14:19:45;95.65;;;62.85;;
72974;SDS011;61166;54.228;37.632;2023-09-19T14:22:12;100.93;;;65.47;;
72974;SDS011;61166;54.228;37.632;2023-09-19T14:24:38;97.07;;;63.63;;
72974;SDS011;61166;54.228;37.632;2023-09-19T14:27:05;80.07;;;56.85;;
72974;SDS011;61166;54.228;37.632;2023-09-19T14:29:32;85.73;;;59.47;;
72974;SDS011;61166;54.228;37.632;2023-09-19T14:31:58;80.50;;;56.40;;
72974;SDS011;61166;54.228;37.632;2023-09-19T14:34:25;87.70;;;60.72;;
72974;SDS011;61166;54.228;37.632;2023-09-19T14:36:52;81.95;;;57.53;;